• Join FlightAware (Why Join?)
  • Login
  • US Flag 
01:15AM EDT


 

Airport Tracker/Info


-or-


 

Live Flight TrackerFlight Track Log ✈ SKW4564 ✈ 05-Sep-2013 ✈ KLAX - KSEA

Flight Track Log - Related Links

Times and Time Zones

All times are in EDT time to prevent confusion due to time zone crossing. See the SKW4564 flight status page for this flight to view local times or setup timezone preferences in your user account.

Time Position Orientation Groundspeed Altitude Reporting Facility
EDT Latitude Longitude Course Direction KTS MPH feet Rate Location/Type
02:43PM 33.9303 -118.4814 338° Northwest 207 238 3,200  Level Los Angeles Center
02:44PM 33.9247 -118.5650 265° West 246 283 5,500 2,460 Climbing Los Angeles Center
02:45PM 34.1470 -118.6265 22° Northeast  Level FlightAware Approximate
02:45PM 33.9464 -118.6547 286° West 286 329 8,300  Level Los Angeles Center
02:46PM 34.2612 -118.6000 North  Level FlightAware Approximate
02:46PM 34.0206 -118.6967 335° Northwest 309 356 9,200  Level Los Angeles Center
02:47PM 34.3709 -118.6438 338° Northwest  Level FlightAware Approximate
02:47PM 34.1033 -118.6592 21° North 307 353 12,000  Level Los Angeles Center
02:48PM 34.4804 -118.6985 338° Northwest  Level FlightAware Approximate
02:48PM 34.1786 -118.6553 North 321 369 14,200  Level Los Angeles Center
02:49PM 34.2953 -118.6789 351° North 354 407 16,000 1,740 Climbing Los Angeles Center
02:50PM 34.4019 -118.7000 351° North 386 444 17,900 1,620 Climbing Los Angeles Center
02:51PM 34.5106 -118.7214 351° North 396 456 19,800 1,680 Climbing Los Angeles Center
02:52PM 34.6381 -118.7803 339° North 409 471 21,800 1,740 Climbing Los Angeles Center
02:53PM 34.7450 -118.8331 338° Northwest 414 476 23,500 1,260 Climbing Los Angeles Center
02:54PM 34.8575 -118.8803 341° North 429 494 24,500 960 Climbing Los Angeles Center
02:55PM 34.9911 -118.9258 344° North 445 512 25,800 1,140 Climbing Los Angeles Center
02:57PM 35.1414 -118.9761 345° North 466 536 27,400 1,500 Climbing Los Angeles Center
02:58PM 35.3175 -119.0381 344° North 471 542 29,300 1,440 Climbing Los Angeles Center
02:59PM 35.4433 -119.0817 344° North 473 544 30,400 1,080 Climbing Los Angeles Center
03:00PM 35.5706 -119.1331 342° North 479 551 31,600 960 Climbing Los Angeles Center
03:01PM 35.6683 -119.1761 340° North 474 545 32,400 960 Climbing Los Angeles Center
03:02PM 35.8189 -119.2414 341° North 477 549 33,600 1,080 Climbing Los Angeles Center
03:03PM 35.9672 -119.3078 340° North 484 557 34,800 960 Climbing Oakland Center
03:04PM 36.0942 -119.3642 340° North 487 560 35,700 540 Climbing Oakland Center
03:05PM 36.2214 -119.4203 340° North 488 562 36,000 120 Climbing Oakland Center
03:06PM 36.3506 -119.4778 340° North 492 566 36,000  Level Oakland Center
03:07PM 36.5047 -119.5478 340° North 493 567 36,000  Level Oakland Center
03:08PM 36.6325 -119.6058 340° North 491 565 36,000  Level Oakland Center
03:09PM 36.7603 -119.6625 340° North 490 564 36,000 -60 Level Oakland Center
03:10PM 36.8881 -119.7203 340° North 489 563 35,900  Descending Oakland Center
03:11PM 37.0167 -119.7789 340° North 492 566 36,000  Climbing Oakland Center
03:12PM 37.1514 -119.8411 340° North 492 566 36,000  Level Oakland Center
03:13PM 37.2803 -119.8981 341° North 492 566 36,000  Level Oakland Center
03:14PM 37.4081 -119.9569 340° North 490 564 36,000  Level Oakland Center
03:15PM 37.5369 -120.0133 341° North 490 564 36,000  Level Oakland Center
03:16PM 37.6994 -120.0536 349° North 496 571 36,000  Level Oakland Center
03:17PM 37.8333 -120.0922 347° North 494 568 36,000  Level Oakland Center
03:18PM 37.9681 -120.1286 348° North 495 570 36,000  Level Oakland Center
03:19PM 38.0997 -120.1669 347° North 491 565 36,000  Level Oakland Center
03:20PM 38.2350 -120.2042 348° North 494 568 36,000  Level Oakland Center
03:21PM 38.3697 -120.2431 347° North 497 572 36,000  Level Oakland Center
03:22PM 38.5042 -120.2797 348° North 497 572 36,000  Level Oakland Center
03:24PM 38.6675 -120.3267 347° North 502 578 36,000  Level Oakland Center
03:25PM 38.8042 -120.3661 347° North 504 580 36,000  Level Oakland Center
03:26PM 38.9417 -120.4061 347° North 507 583 36,000  Level Oakland Center
03:27PM 39.0808 -120.4453 348° North 512 589 36,000  Level Oakland Center
03:28PM 39.2192 -120.4858 347° North 513 590 36,000  Level Oakland Center
03:29PM 39.3594 -120.5267 347° North 517 595 36,000  Level Oakland Center
03:30PM 39.4992 -120.5669 347° North 517 595 36,000  Level Oakland Center
03:31PM 39.6667 -120.6178 347° North 517 595 36,000  Level Oakland Center
03:32PM 39.8064 -120.6578 348° North 516 594 36,000  Level Oakland Center
03:33PM 39.9461 -120.6992 347° North 515 593 36,000  Level Oakland Center
03:34PM 40.0853 -120.7392 348° North 513 590 36,000  Level Oakland Center
03:35PM 40.2253 -120.7806 347° North 517 595 36,000  Level Oakland Center
03:36PM 40.3644 -120.8233 347° North 517 595 36,000  Level Oakland Center
03:37PM 40.5006 -120.8639 347° North 509 586 36,000  Level Oakland Center
03:38PM 40.6464 -120.9083 347° North 525 604 36,000  Level Oakland Center
03:39PM 40.7853 -120.9503 347° North 514 592 36,000  Level Seattle Center
03:40PM 40.9250 -120.9944 347° North 518 596 36,000  Level Seattle Center
03:41PM 41.0650 -121.0381 347° North 517 595 36,100  Climbing Seattle Center
03:42PM 41.2344 -121.0892 347° North 523 602 36,000 -60 Descending Seattle Center
03:43PM 41.3739 -121.1333 347° North 520 598 36,000  Level Seattle Center
03:44PM 41.5136 -121.1764 347° North 518 596 36,000  Level Seattle Center
03:45PM 41.6536 -121.2211 347° North 520 598 36,000  Level Seattle Center
03:46PM 41.7908 -121.2644 347° North 510 587 36,000  Level Seattle Center
03:47PM 41.9283 -121.3058 347° North 508 585 36,000  Level Seattle Center
03:48PM 42.0661 -121.3503 347° North 514 592 36,000  Level Seattle Center
03:49PM 42.2011 -121.3942 346° North 506 582 36,000  Level Seattle Center
03:50PM 42.3650 -121.4456 347° North 507 583 36,000  Level Seattle Center
03:51PM 42.5019 -121.4931 346° North 511 588 36,000  Level Seattle Center
03:52PM 42.6386 -121.5347 347° North 506 582 36,000  Level Seattle Center
03:53PM 42.7747 -121.5783 347° North 506 582 36,000 -60 Level Seattle Center
03:54PM 42.9100 -121.6236 346° North 506 582 35,900  Descending Seattle Center
03:55PM 43.0458 -121.6683 346° North 504 580 36,000  Climbing Seattle Center
03:56PM 43.1819 -121.7131 347° North 505 581 36,000  Level Seattle Center
03:57PM 43.3189 -121.7583 346° North 507 583 36,000  Level Seattle Center
03:58PM 43.4861 -121.8142 346° North 516 594 36,000  Level Seattle Center
03:59PM 43.6269 -121.8608 347° North 522 601 36,000  Level Seattle Center
04:00PM 43.7719 -121.9064 347° North 528 608 36,000  Level Seattle Center
04:01PM 43.9158 -121.9525 347° North 532 612 36,000  Level Seattle Center
04:02PM 44.0575 -122.0019 346° North 529 609 36,000  Level Seattle Center
04:03PM 44.1975 -122.0503 346° North 524 603 36,000  Level Seattle Center
04:04PM 44.3386 -122.0964 347° North 523 602 36,000  Level Seattle Center
04:05PM 44.4758 -122.1436 346° North 517 595 36,000  Level Seattle Center
04:06PM 44.6303 -122.2125 342° North 488 562 36,000  Level Seattle Center
04:07PM 44.7397 -122.3119 327° Northwest 472 543 36,000  Level Seattle Center
04:08PM 44.8497 -122.4117 327° Northwest 472 543 36,000  Level Seattle Center
04:09PM 44.9503 -122.5053 327° Northwest 469 540 36,000  Level Seattle Center
04:11PM 45.0733 -122.5744 338° Northwest 492 566 36,000  Level Seattle Center
04:12PM 45.2086 -122.5781 359° North 495 570 36,000  Level Seattle Center
04:13PM 45.3444 -122.5819 359° North 492 566 36,000 -60 Level Seattle Center
04:14PM 45.5069 -122.5861 359° North 491 565 35,900  Descending Seattle Center
04:15PM 45.6375 -122.5883 359° North 477 549 36,000  Climbing Seattle Center
04:16PM 45.7672 -122.5958 358° North 471 542 36,000 -840 Level Seattle Center
04:17PM 45.8972 -122.6269 351° North 475 547 34,300 -2,280 Descending Seattle Center
04:18PM 46.0317 -122.6608 350° North 489 563 31,400 -2,760 Descending Seattle Center
04:19PM 46.1653 -122.6925 351° North 489 563 28,800 -2,520 Descending Seattle Center
04:20PM 46.2903 -122.7181 352° North 467 537 26,300 -2,640 Descending Seattle Center
04:21PM 46.4328 -122.7278 357° North 436 502 23,500 -2,400 Descending Seattle Center
04:22PM 46.5447 -122.7319 359° North 409 471 21,400 -2,040 Descending Seattle Center
04:22PM 46.6167 -122.7347 358° North 403 464 20,100 -1,980 Descending Seattle Center
04:24PM 46.7558 -122.6831 14° North 376 433 17,400 -1,920 Descending Seattle Center
04:25PM 46.8319 -122.6067 34° Northeast 334 384 15,600 -1,620 Descending Seattle Center
04:26PM 46.9314 -122.5642 16° North 347 399 14,200 -1,320 Descending Seattle Center
04:27PM 47.0236 -122.5253 16° North 343 395 13,000 -1,260 Descending Seattle Center
04:28PM 47.1278 -122.4917 12° North 333 383 11,500 -1,260 Descending Seattle Center
04:29PM 47.2036 -122.4778 North 324 373 10,500 -1,320 Descending Seattle Center
04:30PM 47.2925 -122.4650 North 302 348 9,100 -1,260 Descending Seattle Center
04:31PM 47.3744 -122.4542 North 296 341 8,000 -1,440 Descending Seattle Center
04:32PM 47.4492 -122.4556 359° North 270 311 6,200 -1,680 Descending Seattle Center
04:33PM 47.5169 -122.4553 360° North 243 280 4,700 -1,500 Descending Seattle Center
04:34PM 47.5744 -122.4550 360° North 209 241 3,200 -840 Descending Seattle Center
04:35PM 47.5942 -122.3783 69° East 227 261 3,000 -540 Descending Seattle Center
04:36PM 47.5681 -122.3092 119° Southeast 221 254 2,100 -840 Descending Seattle Center
04:37PM 47.5069 -122.3178 185° South 204 235 1,400 -780 Descending Seattle Center
04:38PM 47.4653 -122.3181 180° South 152 175 600 -540 Descending Seattle Center
04:39PM 47.4258 -122.3186 181° South 147 169 400 -240 Descending Seattle Center